Mekhanik Pogodin — UBFH6 — position and weather

sailwx.info

Track history (hours):
 
Tides and Currents Weather Stations Pressure Air Temp Water Temp Dewpoint Dewpoint Depression Visibility Wind Speed Wind Dir Waves Ship Positions

Mekhanik Pogodin

Last reported at 2014-Dec-20 11:30 UTC. Time now 2014-Dec-20 23:44 UTC.
Position N 37°23' E 026°48'.

Length 141 m; draft 3.7 m.

Type: Ship (hazmat cat A). MMSI: 273354720.

Date/timePositionNaut miles runAvg speedWind from/ knotsBaromVisibWave heightAir tempDewpointWater temp
2014-Dec-20 11:30N 37°23' E 026°48'29 9.8
2014-Dec-20 08:33N 37°47' E 026°28'123 9.3
2014-Dec-19 19:19N 39°46' E 025°46'16 9.0
2014-Dec-19 17:30N 39°60' E 025°57'14510.0
2014-Dec-19 03:04N 40°58' E 028°52'0 0.0
2014-Dec-18 23:19N 40°58' E 028°52'0 0.0
2014-Dec-18 19:31N 40°58' E 028°52'0 0.1
2014-Dec-18 18:19N 40°58' E 028°52'4 4.7
2014-Dec-18 17:32N 40°58' E 028°57'  
2014-Dec-16 02:15N 46°34' E 031°04'27 9.1
2014-Dec-15 23:19N 46°36' E 031°43'7 9.4
2014-Dec-15 22:33N 46°37' E 031°53'8 7.6
2014-Dec-15 21:34N 46°45' E 031°54'9 8.7
2014-Dec-15 20:34N 46°53' E 031°59'4 4.2
2014-Dec-15 19:34N 46°57' E 032°00'0 0.0
2014-Dec-15 18:31N 46°57' E 032°00'0 0.0
2014-Dec-15 17:31N 46°57' E 032°00'0 0.0
2014-Dec-15 16:31N 46°57' E 032°00'0 0.0
2014-Dec-15 15:31N 46°57' E 032°00'0 0.0
2014-Dec-15 14:28N 46°57' E 032°00'0 0.0
2014-Dec-15 13:31N 46°57' E 032°00'0 0.0
2014-Dec-15 12:31N 46°57' E 032°00'0 0.0
2014-Dec-15 11:31N 46°57' E 032°00'0 0.0
2014-Dec-15 10:31N 46°57' E 032°00'0 0.0
2014-Dec-15 09:31N 46°57' E 032°00'0 0.0
2014-Dec-15 08:31N 46°57' E 032°00'0 0.0
2014-Dec-15 07:31N 46°57' E 032°00'0 0.0
2014-Dec-15 06:31N 46°57' E 032°00'0 0.0
2014-Dec-15 05:31N 46°57' E 032°00'0 0.0
2014-Dec-15 04:31N 46°57' E 032°00'0 0.0
2014-Dec-15 03:31N 46°57' E 032°00'0 0.0
2014-Dec-15 02:31N 46°57' E 032°00'0 0.0
2014-Dec-15 01:31N 46°57' E 032°00'0 0.0
2014-Dec-15 00:31N 46°57' E 032°00'0 0.0
2014-Dec-14 23:31N 46°57' E 032°00'0 0.0
2014-Dec-14 22:31N 46°57' E 032°00'0 0.0
2014-Dec-14 21:31N 46°57' E 032°00'0 0.0
2014-Dec-14 20:31N 46°57' E 032°00'0 0.0
2014-Dec-14 19:31N 46°57' E 032°00'0 0.0
2014-Dec-14 18:31N 46°57' E 032°00'0 0.0
2014-Dec-14 17:31N 46°57' E 032°00'0 0.0
2014-Dec-14 16:31N 46°57' E 032°00'0 0.0
2014-Dec-14 15:31N 46°57' E 032°00'0 0.0
2014-Dec-14 14:33N 46°57' E 032°00'0 0.0
2014-Dec-14 13:33N 46°57' E 032°00'0 0.0
2014-Dec-14 12:33N 46°57' E 032°00'0 0.0
2014-Dec-14 11:33N 46°57' E 032°00'1 1.1
2014-Dec-14 10:33N 46°56' E 032°01'9 9.0
2014-Dec-14 09:33N 46°48' E 031°54'9 9.1
2014-Dec-14 08:33N 46°39' E 031°56'14 9.2
2014-Dec-14 07:04N 46°35' E 031°37'15 9.0
2014-Dec-14 05:21N 46°35' E 031°14'13 7.1
2014-Dec-14 03:33N 46°30' E 030°57'1210.2
2014-Dec-14 02:24N 46°19' E 030°58'27 8.3
2014-Dec-13 23:09N 45°58' E 031°23'153 9.8
2014-Dec-13 07:33N 44°17' E 034°05'1111.4
2014-Dec-13 06:33N 44°18' E 034°21'1211.6
2014-Dec-13 05:33N 44°22' E 034°36'1111.4
2014-Dec-13 04:33N 44°27' E 034°51'1111.3
2014-Dec-13 03:33N 44°31' E 035°06'  
Track history (hours):
 
Tides and Currents Weather Stations Pressure Air Temp Water Temp Dewpoint Dewpoint Depression Visibility Wind Speed Wind Dir Waves Ship Positions

Mekhanik Pogodin

Last reported at 2014-Dec-20 11:30 UTC. Time now 2014-Dec-20 23:44 UTC.
Position N 37°23' E 026°48'.

Length 141 m; draft 3.7 m.

Type: Ship (hazmat cat A). MMSI: 273354720.

Date/timePositionNaut miles runAvg speedWind from/ knotsBaromVisibWave heightAir tempDewpointWater temp
2014-Dec-20 11:30N 37°23' E 026°48'29 9.8
2014-Dec-20 08:33N 37°47' E 026°28'123 9.3
2014-Dec-19 19:19N 39°46' E 025°46'16 9.0
2014-Dec-19 17:30N 39°60' E 025°57'14510.0
2014-Dec-19 03:04N 40°58' E 028°52'0 0.0
2014-Dec-18 23:19N 40°58' E 028°52'0 0.0
2014-Dec-18 19:31N 40°58' E 028°52'0 0.1
2014-Dec-18 18:19N 40°58' E 028°52'4 4.7
2014-Dec-18 17:32N 40°58' E 028°57'  
2014-Dec-16 02:15N 46°34' E 031°04'27 9.1
2014-Dec-15 23:19N 46°36' E 031°43'7 9.4
2014-Dec-15 22:33N 46°37' E 031°53'8 7.6
2014-Dec-15 21:34N 46°45' E 031°54'9 8.7
2014-Dec-15 20:34N 46°53' E 031°59'4 4.2
2014-Dec-15 19:34N 46°57' E 032°00'0 0.0
2014-Dec-15 18:31N 46°57' E 032°00'0 0.0
2014-Dec-15 17:31N 46°57' E 032°00'0 0.0
2014-Dec-15 16:31N 46°57' E 032°00'0 0.0
2014-Dec-15 15:31N 46°57' E 032°00'0 0.0
2014-Dec-15 14:28N 46°57' E 032°00'0 0.0
2014-Dec-15 13:31N 46°57' E 032°00'0 0.0
2014-Dec-15 12:31N 46°57' E 032°00'0 0.0
2014-Dec-15 11:31N 46°57' E 032°00'0 0.0
2014-Dec-15 10:31N 46°57' E 032°00'0 0.0
2014-Dec-15 09:31N 46°57' E 032°00'0 0.0
2014-Dec-15 08:31N 46°57' E 032°00'0 0.0
2014-Dec-15 07:31N 46°57' E 032°00'0 0.0
2014-Dec-15 06:31N 46°57' E 032°00'0 0.0
2014-Dec-15 05:31N 46°57' E 032°00'0 0.0
2014-Dec-15 04:31N 46°57' E 032°00'0 0.0
2014-Dec-15 03:31N 46°57' E 032°00'0 0.0
2014-Dec-15 02:31N 46°57' E 032°00'0 0.0
2014-Dec-15 01:31N 46°57' E 032°00'0 0.0
2014-Dec-15 00:31N 46°57' E 032°00'0 0.0
2014-Dec-14 23:31N 46°57' E 032°00'0 0.0
2014-Dec-14 22:31N 46°57' E 032°00'0 0.0
2014-Dec-14 21:31N 46°57' E 032°00'0 0.0
2014-Dec-14 20:31N 46°57' E 032°00'0 0.0
2014-Dec-14 19:31N 46°57' E 032°00'0 0.0
2014-Dec-14 18:31N 46°57' E 032°00'0 0.0
2014-Dec-14 17:31N 46°57' E 032°00'0 0.0
2014-Dec-14 16:31N 46°57' E 032°00'0 0.0
2014-Dec-14 15:31N 46°57' E 032°00'0 0.0
2014-Dec-14 14:33N 46°57' E 032°00'0 0.0
2014-Dec-14 13:33N 46°57' E 032°00'0 0.0
2014-Dec-14 12:33N 46°57' E 032°00'0 0.0
2014-Dec-14 11:33N 46°57' E 032°00'1 1.1
2014-Dec-14 10:33N 46°56' E 032°01'9 9.0
2014-Dec-14 09:33N 46°48' E 031°54'9 9.1
2014-Dec-14 08:33N 46°39' E 031°56'14 9.2
2014-Dec-14 07:04N 46°35' E 031°37'15 9.0
2014-Dec-14 05:21N 46°35' E 031°14'13 7.1
2014-Dec-14 03:33N 46°30' E 030°57'1210.2
2014-Dec-14 02:24N 46°19' E 030°58'27 8.3
2014-Dec-13 23:09N 45°58' E 031°23'153 9.8
2014-Dec-13 07:33N 44°17' E 034°05'1111.4
2014-Dec-13 06:33N 44°18' E 034°21'1211.6
2014-Dec-13 05:33N 44°22' E 034°36'1111.4
2014-Dec-13 04:33N 44°27' E 034°51'1111.3
2014-Dec-13 03:33N 44°31' E 035°06'  

Dump ship's entire track history